Portada
METAR-TAF:

METAR-TAF

Aeroports :

Teheran, Iran

latitud: 35-41N, longitud: 051-21E, altitud: 1204 m

Observació

L'informe es va fer fa 13 minuts, a les 19:30 UTC
Vent 10 kt del Est/Sud-Est
Temperatura 35°C
Humitat 11%
Pressió 1008 hPa
Visibilitat 10 km o més
Núvols disperses a una alçada de 10000 ft

METAR: OIII 181930Z 12010KT 9999 SCT100 35/00 Q1008 A2978

Hora: 00:13 (19:43 UTC)

Pronòstic

L'informe es va fer fa 2 hores i 13 minuts, a les 17:30 UTC
Pronòstic vàlid del 18 a les 18 UTC al 19 a les 24 UTC
Vent 8 kt del Est
Visibilitat: 8000 m
Escasses núvols a una alçada de 4000 ft
Núvols disperses a una alçada de 10000 ft
Temporalment
l' 19 a les 10 UTC al 19 a les 16 UTC
Vent 17 kt del Sud-Est

TAF: OIII 181730Z 1818/1924 09004MPS 8000 FEW040 SCT100 TEMPO 1910/1916 13009MPS

Observacions i pronòstics meteorològics de més de 4000 aeroports (METAR i TAF).

Les estacions disponibles són els punts grocs i vermells al mapa.

Posi el ratolí al punt desitjat per veure el nom de l'estació.

Feu clic per veure les observacions i els pronòstics meteorològics.

Per canviar el mapa: feu clic els botons verds amb una creu de color negre per apropar; al botó verd amb un guió per allunyar la imatge; o en les fletxes verdes per a mapes adjacents.


METAR-TAF: